Time;durP1;ratioP1;P1;durP2;ratioP2;P2;SDS_P1;SDS_P2;PMS_P1;PMS_P2;Temp;Humidity;BMP_temperature;BMP_pressure;BME280_temperature;BME280_humidity;BME280_pressure;Samples;Min_cycle;Max_cycle;Signal;HPM_P1;HPM_P2
2023/03/01 00:00:22;;;;;;;23.25;15.48;;;;;;;;;;5079231;28;20063;-66
2023/03/01 00:02:48;;;;;;;22.02;14.65;;;;;;;;;;5082598;28;20032;-66
2023/03/01 00:05:14;;;;;;;26.63;16.02;;;;;;;;;;5059514;28;20083;-66
2023/03/01 00:07:40;;;;;;;23.35;16.48;;;;;;;;;;5063691;28;20098;-67
2023/03/01 00:10:06;;;;;;;28.73;16.63;;;;;;;;;;5067590;28;20033;-66
2023/03/01 00:12:32;;;;;;;24.10;16.15;;;;;;;;;;5057950;28;20041;-66
2023/03/01 00:14:58;;;;;;;27.77;16.92;;;;;;;;;;5079484;28;20059;-66
2023/03/01 00:17:24;;;;;;;28.02;16.95;;;;;;;;;;5070832;28;20043;-66
2023/03/01 00:19:50;;;;;;;31.40;17.08;;;;;;;;;;5072448;28;20033;-66
2023/03/01 00:22:16;;;;;;;28.10;17.13;;;;;;;;;;5081449;28;20035;-67
2023/03/01 00:24:42;;;;;;;29.00;18.05;;;;;;;;;;5070035;28;20493;-66
2023/03/01 00:27:08;;;;;;;30.30;17.63;;;;;;;;;;5064239;28;20043;-66
2023/03/01 00:29:34;;;;;;;28.30;17.17;;;;;;;;;;5076868;28;20503;-66
2023/03/01 00:32:00;;;;;;;28.08;16.80;;;;;;;;;;5063482;28;20029;-66
2023/03/01 00:34:26;;;;;;;23.20;14.45;;;;;;;;;;5070111;28;20033;-67
2023/03/01 00:36:52;;;;;;;25.55;14.85;;;;;;;;;;5075234;28;20493;-66
2023/03/01 00:39:18;;;;;;;23.55;14.82;;;;;;;;;;5065980;28;20039;-67
2023/03/01 00:41:44;;;;;;;18.90;12.90;;;;;;;;;;5058784;28;20409;-66
2023/03/01 00:44:10;;;;;;;17.67;11.77;;;;;;;;;;5057524;28;20502;-66
2023/03/01 00:46:36;;;;;;;18.00;11.57;;;;;;;;;;5064064;28;20047;-66
2023/03/01 00:49:04;;;;;;;19.05;10.15;;;;;;;;;;5060782;28;20047;-66
2023/03/01 00:51:30;;;;;;;13.40;9.65;;;;;;;;;;5058720;28;20040;-66
2023/03/01 00:53:57;;;;;;;19.17;11.13;;;;;;;;;;5069579;28;20041;-66
2023/03/01 00:56:23;;;;;;;16.48;10.35;;;;;;;;;;5068182;28;20039;-66
2023/03/01 00:58:50;;;;;;;13.77;9.80;;;;;;;;;;5072589;28;20040;-66
2023/03/01 01:01:18;;;;;;;15.13;9.88;;;;;;;;;;5073461;28;20048;-66
2023/03/01 01:03:54;;;;;;;17.10;11.30;;;;;;;;;;5067127;28;20094;-66
2023/03/01 01:06:25;;;;;;;17.35;11.38;;;;;;;;;;5070757;28;20490;-66
2023/03/01 01:08:52;;;;;;;16.83;10.95;;;;;;;;;;5055791;28;20045;-66
2023/03/01 01:11:18;;;;;;;17.40;11.05;;;;;;;;;;5077503;28;20047;-66
2023/03/01 01:13:45;;;;;;;18.02;11.50;;;;;;;;;;5065461;28;20501;-66
2023/03/01 01:16:11;;;;;;;18.88;12.13;;;;;;;;;;5065957;28;20410;-66
2023/03/01 01:18:37;;;;;;;18.65;11.20;;;;;;;;;;5064632;28;20039;-66
2023/03/01 01:21:07;;;;;;;16.55;10.50;;;;;;;;;;5071243;28;20041;-66
2023/03/01 01:23:33;;;;;;;15.27;11.00;;;;;;;;;;5062703;28;20530;-66
2023/03/01 01:26:03;;;;;;;17.23;11.43;;;;;;;;;;5062106;28;20376;-66
2023/03/01 01:28:29;;;;;;;19.83;11.77;;;;;;;;;;5070783;28;20502;-66
2023/03/01 01:30:55;;;;;;;21.13;12.70;;;;;;;;;;5070660;28;20285;-66
2023/03/01 01:33:21;;;;;;;21.38;12.45;;;;;;;;;;5069152;28;20055;-66
2023/03/01 01:35:47;;;;;;;16.00;11.73;;;;;;;;;;5060260;28;20081;-66
2023/03/01 01:38:13;;;;;;;21.20;12.48;;;;;;;;;;5069814;28;20121;-66
2023/03/01 01:40:46;;;;;;;20.25;13.48;;;;;;;;;;5065817;28;20138;-66
2023/03/01 01:43:20;;;;;;;21.67;13.73;;;;;;;;;;5079027;28;20036;-66
2023/03/01 01:45:46;;;;;;;20.85;13.65;;;;;;;;;;5066626;28;20448;-66
2023/03/01 01:48:14;;;;;;;22.20;13.80;;;;;;;;;;5057772;28;20056;-66
2023/03/01 01:50:41;;;;;;;18.88;13.20;;;;;;;;;;5073483;28;20040;-66
2023/03/01 01:53:09;;;;;;;22.05;13.63;;;;;;;;;;5067387;28;20437;-66
2023/03/01 01:55:37;;;;;;;21.60;13.27;;;;;;;;;;5079285;28;20032;-67
2023/03/01 01:58:05;;;;;;;20.08;13.10;;;;;;;;;;5080769;28;20032;-66
2023/03/01 02:00:31;;;;;;;20.20;12.80;;;;;;;;;;5070597;28;20511;-66
2023/03/01 02:03:00;;;;;;;21.50;13.25;;;;;;;;;;5072438;28;20478;-66
2023/03/01 02:05:34;;;;;;;18.02;12.60;;;;;;;;;;5067359;28;20055;-66
2023/03/01 02:08:01;;;;;;;19.13;12.35;;;;;;;;;;5073739;28;20455;-66
2023/03/01 02:10:28;;;;;;;21.45;12.70;;;;;;;;;;5068934;28;20063;-66
2023/03/01 02:12:55;;;;;;;21.02;12.95;;;;;;;;;;5066759;28;20090;-66
2023/03/01 02:15:22;;;;;;;23.10;14.65;;;;;;;;;;5073826;28;20036;-67
2023/03/01 02:17:48;;;;;;;24.05;14.75;;;;;;;;;;5072105;28;20116;-66
2023/03/01 02:20:21;;;;;;;22.02;13.90;;;;;;;;;;5079703;28;20041;-66
2023/03/01 02:22:47;;;;;;;23.23;12.57;;;;;;;;;;5072574;28;20050;-66
2023/03/01 02:25:18;;;;;;;20.90;13.65;;;;;;;;;;5074009;28;20040;-66
2023/03/01 02:27:51;;;;;;;23.15;12.68;;;;;;;;;;5076545;28;20037;-66
2023/03/01 02:30:19;;;;;;;23.27;12.60;;;;;;;;;;5078659;28;20037;-67
2023/03/01 02:32:45;;;;;;;21.42;12.82;;;;;;;;;;5076027;28;20036;-66
2023/03/01 02:35:14;;;;;;;19.13;12.30;;;;;;;;;;5070516;28;20043;-66
2023/03/01 02:37:40;;;;;;;17.35;11.93;;;;;;;;;;5072887;28;20043;-67
2023/03/01 02:40:11;;;;;;;19.88;13.73;;;;;;;;;;5048009;28;20495;-66
2023/03/01 02:42:41;;;;;;;22.73;13.85;;;;;;;;;;5055345;28;20040;-67
2023/03/01 02:45:07;;;;;;;19.88;12.90;;;;;;;;;;5074180;28;20040;-67
2023/03/01 02:47:33;;;;;;;21.33;14.27;;;;;;;;;;5065584;28;20037;-66
2023/03/01 02:49:59;;;;;;;22.55;13.52;;;;;;;;;;5089523;28;20055;-67
2023/03/01 02:52:39;;;;;;;21.98;14.93;;;;;;;;;;5069033;28;20068;-66
2023/03/01 02:55:07;;;;;;;21.77;13.90;;;;;;;;;;5056302;28;20497;-66
2023/03/01 02:57:34;;;;;;;20.67;13.05;;;;;;;;;;5074432;28;20040;-67
2023/03/01 03:00:06;;;;;;;16.60;11.60;;;;;;;;;;5081248;28;20086;-67
2023/03/01 03:02:35;;;;;;;19.55;12.57;;;;;;;;;;5066816;28;20055;-67
2023/03/01 03:05:08;;;;;;;17.40;11.93;;;;;;;;;;5072048;28;20067;-66
2023/03/01 03:07:34;;;;;;;22.65;13.13;;;;;;;;;;5060441;28;20521;-66
2023/03/01 03:10:00;;;;;;;19.38;12.95;;;;;;;;;;5083682;28;20492;-67
2023/03/01 03:12:26;;;;;;;19.67;12.25;;;;;;;;;;5084918;28;20028;-67
2023/03/01 03:14:52;;;;;;;22.92;12.57;;;;;;;;;;5062904;28;20037;-67
2023/03/01 03:17:18;;;;;;;20.33;12.93;;;;;;;;;;5071265;28;20036;-67
2023/03/01 03:19:45;;;;;;;20.65;13.63;;;;;;;;;;5072634;28;20048;-67
2023/03/01 03:22:11;;;;;;;21.35;14.00;;;;;;;;;;5080752;28;20421;-67
2023/03/01 03:24:37;;;;;;;22.08;13.65;;;;;;;;;;5089885;28;20042;-67
2023/03/01 03:27:07;;;;;;;23.85;14.02;;;;;;;;;;5071088;28;20052;-67
2023/03/01 03:29:33;;;;;;;21.58;13.82;;;;;;;;;;5086837;28;20042;-67
2023/03/01 03:31:59;;;;;;;23.60;13.70;;;;;;;;;;5091586;28;20485;-67
2023/03/01 03:34:25;;;;;;;23.60;14.50;;;;;;;;;;5064363;28;20070;-67
2023/03/01 03:36:59;;;;;;;23.30;14.55;;;;;;;;;;5063356;28;20127;-67
2023/03/01 03:39:25;;;;;;;21.52;13.75;;;;;;;;;;5072040;28;20052;-67
2023/03/01 03:41:51;;;;;;;23.60;13.88;;;;;;;;;;5072835;28;20048;-67
2023/03/01 03:44:17;;;;;;;21.48;13.38;;;;;;;;;;5062468;28;20047;-67
2023/03/01 03:46:43;;;;;;;20.30;13.05;;;;;;;;;;5066096;28;20075;-67
2023/03/01 03:49:09;;;;;;;23.58;13.52;;;;;;;;;;5067918;28;20028;-67
2023/03/01 03:51:35;;;;;;;20.98;13.63;;;;;;;;;;5070121;28;20038;-67
2023/03/01 03:54:01;;;;;;;23.05;13.05;;;;;;;;;;5063504;28;20166;-67
2023/03/01 03:56:27;;;;;;;20.15;12.82;;;;;;;;;;5067378;28;20077;-67
2023/03/01 03:58:53;;;;;;;20.45;12.90;;;;;;;;;;5070787;28;20069;-67
2023/03/01 04:01:19;;;;;;;19.60;12.55;;;;;;;;;;5079096;28;20072;-67
2023/03/01 04:03:46;;;;;;;19.30;12.70;;;;;;;;;;5083585;28;20080;-67
2023/03/01 04:06:12;;;;;;;18.10;12.50;;;;;;;;;;5071153;28;20047;-67
2023/03/01 04:08:39;;;;;;;19.65;12.52;;;;;;;;;;5079784;28;20039;-67
2023/03/01 04:13:50;;;;;;;20.75;13.10;;;;;;;;;;5066888;28;20044;-67
2023/03/01 04:18:48;;;;;;;19.58;13.15;;;;;;;;;;5067045;28;20048;-64
2023/03/01 04:21:14;;;;;;;19.38;13.23;;;;;;;;;;5071460;28;20036;-64
2023/03/01 04:23:41;;;;;;;19.52;13.05;;;;;;;;;;5069478;28;20041;-63
2023/03/01 04:26:07;;;;;;;20.33;12.98;;;;;;;;;;5070272;28;20051;-64
2023/03/01 04:28:37;;;;;;;19.17;13.30;;;;;;;;;;5070908;28;20042;-64
2023/03/01 04:31:12;;;;;;;20.67;12.70;;;;;;;;;;5062694;28;20033;-63
2023/03/01 04:33:51;;;;;;;18.85;12.70;;;;;;;;;;5069856;28;20043;-64
2023/03/01 04:36:17;;;;;;;18.85;12.68;;;;;;;;;;5070534;28;20044;-64
2023/03/01 04:38:47;;;;;;;23.63;13.93;;;;;;;;;;5069997;28;20032;-64
2023/03/01 04:41:13;;;;;;;22.00;14.18;;;;;;;;;;5071231;28;20045;-64
2023/03/01 04:43:39;;;;;;;24.02;13.77;;;;;;;;;;5070022;28;20410;-64
2023/03/01 04:46:09;;;;;;;21.65;13.90;;;;;;;;;;5070722;28;20040;-64
2023/03/01 04:48:36;;;;;;;24.63;13.57;;;;;;;;;;5060929;28;20123;-64
2023/03/01 04:51:02;;;;;;;21.58;13.35;;;;;;;;;;5054444;28;20060;-64
2023/03/01 04:53:28;;;;;;;21.88;14.10;;;;;;;;;;5062431;28;20382;-63
2023/03/01 04:55:55;;;;;;;24.40;13.80;;;;;;;;;;5064263;28;20047;-64
2023/03/01 04:58:22;;;;;;;19.70;13.45;;;;;;;;;;5070634;28;20036;-63
2023/03/01 05:00:48;;;;;;;18.25;12.43;;;;;;;;;;5067735;28;20040;-64
2023/03/01 05:03:17;;;;;;;23.45;14.18;;;;;;;;;;5064615;28;20029;-64
2023/03/01 05:05:44;;;;;;;23.83;14.45;;;;;;;;;;5069294;28;20091;-64
2023/03/01 05:08:17;;;;;;;24.27;15.00;;;;;;;;;;5067164;28;20086;-63
2023/03/01 05:10:44;;;;;;;20.48;13.77;;;;;;;;;;5069468;28;20500;-64
2023/03/01 05:13:10;;;;;;;21.90;14.07;;;;;;;;;;5070535;28;20028;-63
2023/03/01 05:15:36;;;;;;;25.73;14.88;;;;;;;;;;5070585;28;20379;-64
2023/03/01 05:18:02;;;;;;;20.38;13.30;;;;;;;;;;5062508;28;20037;-64
2023/03/01 05:20:29;;;;;;;21.38;13.77;;;;;;;;;;5063977;28;20517;-63
2023/03/01 05:22:56;;;;;;;23.90;14.18;;;;;;;;;;5068118;28;20044;-63
2023/03/01 05:25:22;;;;;;;20.35;14.00;;;;;;;;;;5068348;28;20037;-63
2023/03/01 05:27:49;;;;;;;23.63;14.35;;;;;;;;;;5069607;28;20029;-63
2023/03/01 05:30:15;;;;;;;25.48;15.10;;;;;;;;;;5066849;28;20067;-63
2023/03/01 05:32:45;;;;;;;23.70;15.48;;;;;;;;;;5061329;28;20045;-62
2023/03/01 05:35:15;;;;;;;22.35;14.48;;;;;;;;;;5072078;28;20520;-63
2023/03/01 05:37:42;;;;;;;23.67;15.40;;;;;;;;;;5074407;28;20097;-62
2023/03/01 05:40:15;;;;;;;25.52;15.93;;;;;;;;;;5073060;28;20041;-62
2023/03/01 05:42:41;;;;;;;23.42;15.27;;;;;;;;;;5075430;28;20502;-63
2023/03/01 05:45:09;;;;;;;23.40;14.88;;;;;;;;;;5072594;28;20487;-63
2023/03/01 05:47:35;;;;;;;23.30;14.90;;;;;;;;;;5073475;28;20053;-62
2023/03/01 05:50:01;;;;;;;22.88;14.75;;;;;;;;;;5076068;28;20033;-63
2023/03/01 05:52:27;;;;;;;26.48;14.88;;;;;;;;;;5075986;28;20037;-62
2023/03/01 05:54:53;;;;;;;26.00;15.37;;;;;;;;;;5077525;28;20094;-62
2023/03/01 05:57:20;;;;;;;24.83;16.42;;;;;;;;;;5076844;28;20037;-62
2023/03/01 05:59:46;;;;;;;25.58;14.02;;;;;;;;;;5076385;28;20032;-62
2023/03/01 06:02:12;;;;;;;22.67;15.13;;;;;;;;;;5073038;28;20044;-63
2023/03/01 06:04:38;;;;;;;24.47;15.60;;;;;;;;;;5081369;28;20048;-62
2023/03/01 06:07:04;;;;;;;27.92;15.57;;;;;;;;;;5073927;28;20036;-62
2023/03/01 06:09:30;;;;;;;23.58;14.00;;;;;;;;;;5078518;28;20059;-62
2023/03/01 06:11:56;;;;;;;26.00;15.55;;;;;;;;;;5076300;28;20102;-63
2023/03/01 06:14:22;;;;;;;26.23;15.30;;;;;;;;;;5082874;28;20036;-62
2023/03/01 06:16:48;;;;;;;27.53;15.83;;;;;;;;;;5076129;28;20032;-62
2023/03/01 06:19:14;;;;;;;27.90;15.87;;;;;;;;;;5070707;28;20525;-62
2023/03/01 06:21:40;;;;;;;23.50;15.23;;;;;;;;;;5077079;28;20043;-62
2023/03/01 06:24:07;;;;;;;27.20;14.80;;;;;;;;;;5074298;28;20056;-62
2023/03/01 06:26:33;;;;;;;23.47;15.23;;;;;;;;;;5073491;28;20043;-62
2023/03/01 06:28:59;;;;;;;23.77;13.60;;;;;;;;;;5071759;28;20032;-62
2023/03/01 06:31:25;;;;;;;22.57;14.43;;;;;;;;;;5070395;28;20043;-63
2023/03/01 06:33:51;;;;;;;23.30;13.98;;;;;;;;;;5065075;28;20036;-62
2023/03/01 06:36:18;;;;;;;21.15;14.07;;;;;;;;;;5072916;28;20113;-63
2023/03/01 06:38:44;;;;;;;22.57;13.77;;;;;;;;;;5072328;28;20048;-62
2023/03/01 06:41:10;;;;;;;23.85;14.38;;;;;;;;;;5070223;28;20517;-62
2023/03/01 06:43:36;;;;;;;22.08;14.20;;;;;;;;;;5073037;28;20075;-63
2023/03/01 06:46:06;;;;;;;21.20;13.40;;;;;;;;;;5071854;28;21317;-62
2023/03/01 06:48:33;;;;;;;19.27;13.30;;;;;;;;;;5065552;28;20064;-62
2023/03/01 06:51:00;;;;;;;20.45;13.68;;;;;;;;;;5063782;28;20101;-63
2023/03/01 06:53:27;;;;;;;22.65;14.60;;;;;;;;;;5076237;28;20040;-62
2023/03/01 06:56:02;;;;;;;25.55;14.77;;;;;;;;;;5069277;28;20055;-62
2023/03/01 06:58:28;;;;;;;26.90;17.37;;;;;;;;;;5075404;28;20032;-62
2023/03/01 07:00:54;;;;;;;21.20;14.23;;;;;;;;;;5071291;28;20071;-63
2023/03/01 07:03:20;;;;;;;22.70;15.07;;;;;;;;;;5073799;28;20060;-63
2023/03/01 07:05:48;;;;;;;24.42;14.80;;;;;;;;;;5071490;28;20040;-62
2023/03/01 07:08:14;;;;;;;25.45;15.23;;;;;;;;;;5066524;28;20051;-62
2023/03/01 07:10:40;;;;;;;26.30;15.70;;;;;;;;;;5067651;28;20394;-63
2023/03/01 07:13:06;;;;;;;28.67;16.33;;;;;;;;;;5075549;28;20032;-63
2023/03/01 07:15:33;;;;;;;26.50;16.10;;;;;;;;;;5075390;28;20091;-62
2023/03/01 07:17:59;;;;;;;28.58;15.93;;;;;;;;;;5073118;28;20533;-63
2023/03/01 07:20:25;;;;;;;26.93;15.90;;;;;;;;;;5074249;28;20072;-62
2023/03/01 07:22:56;;;;;;;30.20;18.73;;;;;;;;;;5070898;28;20593;-63
2023/03/01 07:25:22;;;;;;;33.35;19.33;;;;;;;;;;5069583;28;20498;-62
2023/03/01 07:27:52;;;;;;;33.42;18.88;;;;;;;;;;5074001;28;20106;-63
2023/03/01 07:30:18;;;;;;;28.60;17.47;;;;;;;;;;5065849;28;20037;-62
2023/03/01 07:32:45;;;;;;;32.93;18.87;;;;;;;;;;5069333;28;20039;-62
2023/03/01 07:35:11;;;;;;;36.38;19.65;;;;;;;;;;5072665;28;20047;-62
2023/03/01 07:37:37;;;;;;;35.47;19.70;;;;;;;;;;5072261;28;20486;-63
2023/03/01 07:40:03;;;;;;;35.17;20.48;;;;;;;;;;5069343;28;20041;-63
2023/03/01 07:42:29;;;;;;;33.13;19.52;;;;;;;;;;5051902;28;20045;-63
2023/03/01 07:44:55;;;;;;;36.00;20.25;;;;;;;;;;5070659;28;20387;-63
2023/03/01 07:47:21;;;;;;;34.00;20.70;;;;;;;;;;5071149;28;20044;-63
2023/03/01 07:49:47;;;;;;;35.20;20.70;;;;;;;;;;5069118;28;20060;-63
2023/03/01 07:52:13;;;;;;;38.88;22.38;;;;;;;;;;5070539;28;20056;-63
2023/03/01 07:54:39;;;;;;;40.33;22.27;;;;;;;;;;5069561;28;20393;-63
2023/03/01 07:57:05;;;;;;;35.95;21.42;;;;;;;;;;5070438;28;20460;-63
2023/03/01 07:59:32;;;;;;;34.42;21.60;;;;;;;;;;5069706;28;20141;-63
2023/03/01 08:01:58;;;;;;;32.47;20.83;;;;;;;;;;5080197;28;20044;-63
2023/03/01 08:04:27;;;;;;;36.15;20.70;;;;;;;;;;5069898;28;20036;-63
2023/03/01 08:06:53;;;;;;;38.10;22.60;;;;;;;;;;5071071;28;20036;-63
2023/03/01 08:09:19;;;;;;;39.97;24.05;;;;;;;;;;5075798;28;20078;-63
2023/03/01 08:11:45;;;;;;;42.50;23.58;;;;;;;;;;5068125;28;20028;-63
2023/03/01 08:14:11;;;;;;;39.75;23.08;;;;;;;;;;5071910;28;20393;-63
2023/03/01 08:16:37;;;;;;;39.03;22.65;;;;;;;;;;5070807;28;20099;-63
2023/03/01 08:19:04;;;;;;;40.03;24.42;;;;;;;;;;5072239;28;20510;-63
2023/03/01 08:21:30;;;;;;;43.42;25.10;;;;;;;;;;5070321;28;20028;-63
2023/03/01 08:23:56;;;;;;;46.42;25.20;;;;;;;;;;5069020;28;20063;-63
2023/03/01 08:26:22;;;;;;;44.53;25.50;;;;;;;;;;5070068;28;20124;-63
2023/03/01 08:28:50;;;;;;;41.47;24.85;;;;;;;;;;5070805;28;20478;-64
2023/03/01 08:31:16;;;;;;;40.42;23.70;;;;;;;;;;5068967;28;20627;-63
2023/03/01 08:33:42;;;;;;;37.70;23.13;;;;;;;;;;5069830;28;20047;-63
2023/03/01 08:36:08;;;;;;;44.40;24.63;;;;;;;;;;5067385;28;20032;-63
2023/03/01 08:38:35;;;;;;;41.30;22.65;;;;;;;;;;5070937;28;20037;-63
2023/03/01 08:41:02;;;;;;;38.00;23.27;;;;;;;;;;5069531;28;20085;-64
2023/03/01 08:43:28;;;;;;;39.00;22.45;;;;;;;;;;5069541;28;20044;-63
2023/03/01 08:45:54;;;;;;;37.10;23.17;;;;;;;;;;5063857;28;20129;-64
2023/03/01 08:48:20;;;;;;;41.50;22.88;;;;;;;;;;5066643;28;20113;-64
2023/03/01 08:50:46;;;;;;;42.03;23.35;;;;;;;;;;5062805;28;20513;-64
2023/03/01 08:53:12;;;;;;;35.15;21.48;;;;;;;;;;5065840;28;20059;-63
2023/03/01 08:55:38;;;;;;;38.60;22.98;;;;;;;;;;5068238;28;20036;-64
2023/03/01 08:58:04;;;;;;;36.25;20.98;;;;;;;;;;5068376;28;20036;-64
2023/03/01 09:00:30;;;;;;;35.95;20.40;;;;;;;;;;5069799;28;20044;-64
2023/03/01 09:02:56;;;;;;;33.92;20.17;;;;;;;;;;5065899;28;20036;-64
2023/03/01 09:05:22;;;;;;;27.85;17.60;;;;;;;;;;5068629;28;20039;-64
2023/03/01 09:07:48;;;;;;;31.15;18.17;;;;;;;;;;5070748;28;20043;-64
2023/03/01 09:10:14;;;;;;;27.45;16.20;;;;;;;;;;5068361;28;20521;-64
2023/03/01 09:12:40;;;;;;;30.77;16.25;;;;;;;;;;5073058;28;20062;-64
2023/03/01 09:15:06;;;;;;;28.67;15.13;;;;;;;;;;5075732;28;20032;-64
2023/03/01 09:17:32;;;;;;;22.55;14.07;;;;;;;;;;5080605;28;20037;-64
2023/03/01 09:19:59;;;;;;;22.42;14.07;;;;;;;;;;5072776;28;20123;-64
2023/03/01 09:22:25;;;;;;;21.33;13.00;;;;;;;;;;5070147;28;20045;-64
2023/03/01 09:24:51;;;;;;;18.33;11.88;;;;;;;;;;5075157;28;20044;-64
2023/03/01 09:27:18;;;;;;;21.67;11.82;;;;;;;;;;5070240;28;20040;-64
2023/03/01 09:29:44;;;;;;;17.80;11.57;;;;;;;;;;5075544;28;20041;-64
2023/03/01 09:32:11;;;;;;;18.20;11.20;;;;;;;;;;5073117;28;20044;-64
2023/03/01 09:35:00;;;;;;;19.90;10.98;;;;;;;;;;5075246;28;20029;-64
2023/03/01 09:37:23;;;;;;;23.10;12.07;;;;;;;;;;5074922;28;20044;-64
2023/03/01 09:39:49;;;;;;;19.13;11.90;;;;;;;;;;5075441;28;20044;-64
2023/03/01 09:42:16;;;;;;;16.58;10.60;;;;;;;;;;5073504;28;20040;-64
2023/03/01 09:44:50;;;;;;;14.90;10.13;;;;;;;;;;5074760;28;20131;-64
2023/03/01 09:47:21;;;;;;;17.55;10.38;;;;;;;;;;5073910;28;20033;-64
2023/03/01 09:49:59;;;;;;;14.43;9.90;;;;;;;;;;5073913;28;20033;-64
2023/03/01 09:52:30;;;;;;;15.88;11.05;;;;;;;;;;5073177;28;20036;-64
2023/03/01 09:54:57;;;;;;;16.90;11.55;;;;;;;;;;5075072;28;20124;-64
2023/03/01 09:57:32;;;;;;;16.83;10.18;;;;;;;;;;5074880;28;20050;-64
2023/03/01 09:59:58;;;;;;;12.43;8.40;;;;;;;;;;5075368;28;20044;-63
2023/03/01 10:02:33;;;;;;;19.85;9.55;;;;;;;;;;5072956;28;20498;-64
2023/03/01 10:05:22;;;;;;;17.73;10.23;;;;;;;;;;5073776;28;20036;-64
2023/03/01 10:07:54;;;;;;;14.23;8.35;;;;;;;;;;5064027;28;20087;-64
2023/03/01 10:10:39;;;;;;;15.48;8.55;;;;;;;;;;5074816;28;20045;-64
2023/03/01 10:13:18;;;;;;;13.80;7.85;;;;;;;;;;5072981;28;20044;-64
2023/03/01 10:15:46;;;;;;;10.73;7.22;;;;;;;;;;5074672;28;20069;-64
2023/03/01 10:18:15;;;;;;;8.07;5.30;;;;;;;;;;5107833;22;20575;-65
2023/03/01 10:20:58;;;;;;;10.25;7.47;;;;;;;;;;5102695;28;20043;-65
2023/03/01 10:23:25;;;;;;;8.40;6.55;;;;;;;;;;5105662;28;20550;-65
2023/03/01 10:25:57;;;;;;;9.15;4.40;;;;;;;;;;5096061;28;20498;-65
2023/03/01 10:28:32;;;;;;;7.10;4.32;;;;;;;;;;5093429;28;20048;-65
2023/03/01 10:30:59;;;;;;;7.85;4.43;;;;;;;;;;5095704;28;20050;-65
2023/03/01 10:33:27;;;;;;;7.65;3.75;;;;;;;;;;5108725;28;20039;-65
2023/03/01 10:35:53;;;;;;;7.80;3.70;;;;;;;;;;5106194;28;20505;-65
2023/03/01 10:38:20;;;;;;;7.25;3.70;;;;;;;;;;5114865;28;20040;-65
2023/03/01 10:40:52;;;;;;;7.47;3.60;;;;;;;;;;5114454;27;20039;-65
2023/03/01 10:43:18;;;;;;;5.53;3.75;;;;;;;;;;5102225;28;20076;-65
2023/03/01 10:45:44;;;;;;;6.93;3.60;;;;;;;;;;5110042;28;20031;-66
2023/03/01 10:48:14;;;;;;;8.23;5.13;;;;;;;;;;5102172;28;20096;-65
2023/03/01 10:50:42;;;;;;;9.85;4.25;;;;;;;;;;5094232;28;20494;-65
2023/03/01 10:53:20;;;;;;;7.72;4.47;;;;;;;;;;5105053;28;20497;-65
2023/03/01 10:55:46;;;;;;;5.28;4.00;;;;;;;;;;5096365;28;20040;-65
2023/03/01 10:58:15;;;;;;;5.03;3.75;;;;;;;;;;5093980;28;20409;-65
2023/03/01 11:00:52;;;;;;;6.00;4.13;;;;;;;;;;5107537;27;20031;-65
2023/03/01 11:03:23;;;;;;;6.90;4.57;;;;;;;;;;5108035;28;20036;-65
2023/03/01 11:05:54;;;;;;;8.35;4.43;;;;;;;;;;5094060;28;20047;-65
2023/03/01 11:08:34;;;;;;;8.77;4.22;;;;;;;;;;5095826;27;20036;-65
2023/03/01 11:11:13;;;;;;;9.95;4.70;;;;;;;;;;5105306;28;20032;-65
2023/03/01 11:13:51;;;;;;;7.70;4.40;;;;;;;;;;5111069;28;20392;-65
2023/03/01 11:16:22;;;;;;;7.32;4.82;;;;;;;;;;5102091;28;20058;-65
2023/03/01 11:18:48;;;;;;;;;;;;;;;;;;5113640;27;20038;-65
2023/03/01 11:21:15;;;;;;;7.35;4.75;;;;;;;;;;5120660;27;19915;-65
2023/03/01 11:23:43;;;;;;;6.78;4.30;;;;;;;;;;5113949;28;20520;-65
2023/03/01 11:26:10;;;;;;;7.30;4.55;;;;;;;;;;5113754;28;20557;-65
2023/03/01 11:28:38;;;;;;;8.43;4.82;;;;;;;;;;5128515;27;20043;-65
2023/03/01 11:31:05;;;;;;;9.45;5.15;;;;;;;;;;5122605;27;20051;-65
2023/03/01 11:33:34;;;;;;;7.88;5.03;;;;;;;;;;5128550;27;20039;-65
2023/03/01 11:36:00;;;;;;;8.93;4.82;;;;;;;;;;5134113;27;20484;-65
2023/03/01 11:38:27;;;;;;;6.95;5.15;;;;;;;;;;5133677;27;20050;-65
2023/03/01 11:40:58;;;;;;;11.05;5.78;;;;;;;;;;5123924;27;20058;-65
2023/03/01 11:43:33;;;;;;;8.13;5.28;;;;;;;;;;5124685;27;20480;-65
2023/03/01 11:46:19;;;;;;;9.93;5.37;;;;;;;;;;5104194;28;20504;-65
2023/03/01 11:48:51;;;;;;;9.88;5.32;;;;;;;;;;5121316;27;20046;-65
2023/03/01 11:51:25;;;;;;;9.63;5.80;;;;;;;;;;5121657;27;20114;-65
2023/03/01 11:54:15;;;;;;;11.52;6.05;;;;;;;;;;5112964;28;20039;-65
2023/03/01 11:56:56;;;;;;;11.68;6.85;;;;;;;;;;5113271;28;20095;-65
2023/03/01 11:59:35;;;;;;;12.02;6.30;;;;;;;;;;5128263;27;20042;-65
2023/03/01 12:02:34;;;;;;;9.52;5.90;;;;;;;;;;5121621;27;20400;-65
2023/03/01 12:05:00;;;;;;;7.97;5.65;;;;;;;;;;5078631;28;20496;-65
2023/03/01 12:07:41;;;;;;;9.50;5.30;;;;;;;;;;5120142;27;20130;-65
2023/03/01 12:10:24;;;;;;;9.48;5.72;;;;;;;;;;5106322;27;20039;-65
2023/03/01 12:12:59;;;;;;;10.30;6.28;;;;;;;;;;5133281;27;20039;-65
2023/03/01 12:15:33;;;;;;;9.70;5.65;;;;;;;;;;5125355;27;20036;-65
2023/03/01 12:18:18;;;;;;;11.35;6.45;;;;;;;;;;5123728;27;20062;-65
2023/03/01 12:20:54;;;;;;;9.63;5.82;;;;;;;;;;5116239;27;20073;-65
2023/03/01 12:23:29;;;;;;;10.60;5.80;;;;;;;;;;5133118;27;20119;-65
2023/03/01 12:26:07;;;;;;;8.60;5.90;;;;;;;;;;5133235;27;20452;-65
2023/03/01 12:28:46;;;;;;;9.20;6.25;;;;;;;;;;5133001;27;20040;-65
2023/03/01 12:31:20;;;;;;;10.45;6.72;;;;;;;;;;5124501;27;20043;-65
2023/03/01 12:33:55;;;;;;;9.55;6.05;;;;;;;;;;5114451;27;20063;-65
2023/03/01 12:36:27;;;;;;;11.07;6.15;;;;;;;;;;5112385;28;20127;-65
2023/03/01 12:39:32;;;;;;;11.35;6.25;;;;;;;;;;5119385;27;20046;-65
2023/03/01 12:41:58;;;;;;;11.30;5.72;;;;;;;;;;5068247;28;20086;-65
2023/03/01 12:44:29;;;;;;;12.27;6.45;;;;;;;;;;5067555;28;20032;-65
2023/03/01 12:47:01;;;;;;;14.82;8.50;;;;;;;;;;5090954;28;20066;-65
2023/03/01 12:49:32;;;;;;;9.95;6.15;;;;;;;;;;5119017;27;20036;-65
2023/03/01 12:52:04;;;;;;;13.33;7.17;;;;;;;;;;5120943;27;20043;-65
2023/03/01 12:54:31;;;;;;;12.15;7.13;;;;;;;;;;5112169;28;20044;-65
2023/03/01 12:57:00;;;;;;;11.00;7.25;;;;;;;;;;5112210;28;20040;-65
2023/03/01 12:59:40;;;;;;;12.55;7.28;;;;;;;;;;5126875;27;20038;-65
2023/03/01 13:02:17;;;;;;;11.13;6.60;;;;;;;;;;5120063;27;20112;-65
2023/03/01 13:04:52;;;;;;;13.55;6.97;;;;;;;;;;5112239;28;20084;-65
2023/03/01 13:07:18;;;;;;;11.18;6.60;;;;;;;;;;5112040;28;20043;-65
2023/03/01 13:09:44;;;;;;;11.98;6.38;;;;;;;;;;5118824;27;20047;-65
2023/03/01 13:12:33;;;;;;;11.20;7.38;;;;;;;;;;5124424;27;20088;-65
2023/03/01 13:14:59;;;;;;;9.90;6.60;;;;;;;;;;5123713;28;20035;-65
2023/03/01 13:17:30;;;;;;;12.13;6.32;;;;;;;;;;5114031;28;20046;-65
2023/03/01 13:19:57;;;;;;;10.82;6.95;;;;;;;;;;5123501;27;20039;-65
2023/03/01 13:22:28;;;;;;;11.05;6.45;;;;;;;;;;5120942;27;20481;-65
2023/03/01 13:25:01;;;;;;;9.48;6.50;;;;;;;;;;5119267;28;20064;-65
2023/03/01 13:27:29;;;;;;;11.57;6.38;;;;;;;;;;5114650;28;20039;-65
2023/03/01 13:30:03;;;;;;;9.93;6.10;;;;;;;;;;5125333;27;20450;-65
2023/03/01 13:32:32;;;;;;;10.25;6.45;;;;;;;;;;5127864;28;20075;-65
2023/03/01 13:35:23;;;;;;;11.10;6.68;;;;;;;;;;5132665;28;20508;-65
2023/03/01 13:37:49;;;;;;;10.52;6.68;;;;;;;;;;5132410;28;20039;-65
2023/03/01 13:40:18;;;;;;;12.73;6.72;;;;;;;;;;5122578;27;20035;-65
2023/03/01 13:42:46;;;;;;;10.98;7.13;;;;;;;;;;5123205;28;20031;-65
2023/03/01 13:45:20;;;;;;;12.32;7.07;;;;;;;;;;5132142;28;20042;-65
2023/03/01 13:47:49;;;;;;;13.45;7.18;;;;;;;;;;5132386;28;20110;-65
2023/03/01 13:50:44;;;;;;;13.73;7.25;;;;;;;;;;5123377;27;20039;-65
2023/03/01 13:53:13;;;;;;;12.55;7.53;;;;;;;;;;5093440;28;20039;-65
2023/03/01 13:55:49;;;;;;;12.27;7.93;;;;;;;;;;5120326;27;20054;-65
2023/03/01 13:58:25;;;;;;;15.35;8.27;;;;;;;;;;5123192;27;20078;-65
2023/03/01 14:00:59;;;;;;;13.00;7.63;;;;;;;;;;5106957;27;20050;-65
2023/03/01 14:03:25;;;;;;;14.68;8.32;;;;;;;;;;5115199;28;20092;-65
2023/03/01 14:06:00;;;;;;;16.95;8.75;;;;;;;;;;5115169;28;20047;-65
2023/03/01 14:08:28;;;;;;;16.27;9.15;;;;;;;;;;5120875;27;20039;-65
2023/03/01 14:11:21;;;;;;;14.75;8.20;;;;;;;;;;5127294;27;20071;-65
2023/03/01 14:14:04;;;;;;;13.60;8.40;;;;;;;;;;5135545;27;20039;-65
2023/03/01 14:16:48;;;;;;;13.88;8.13;;;;;;;;;;5134277;27;20035;-65
2023/03/01 14:19:24;;;;;;;13.88;7.40;;;;;;;;;;5133147;27;20088;-65
2023/03/01 14:22:00;;;;;;;15.50;8.50;;;;;;;;;;5125072;27;20039;-65
2023/03/01 14:24:27;;;;;;;16.13;8.98;;;;;;;;;;5115040;28;20458;-65
2023/03/01 14:26:53;;;;;;;13.02;8.07;;;;;;;;;;5114662;28;20048;-65
2023/03/01 14:29:34;;;;;;;14.65;8.48;;;;;;;;;;5127406;27;20034;-65
2023/03/01 14:32:10;;;;;;;15.13;8.68;;;;;;;;;;5119311;27;20426;-65
2023/03/01 14:34:36;;;;;;;15.88;9.05;;;;;;;;;;5131666;27;20061;-65
2023/03/01 14:37:17;;;;;;;15.80;8.65;;;;;;;;;;5135226;27;20480;-65
2023/03/01 14:39:43;;;;;;;15.07;9.00;;;;;;;;;;5127296;27;20504;-65